sensor_id;sensor_type;location;lat;lon;timestamp;P1;durP1;ratioP1;P2;durP2;ratioP2
12852;SDS011;6495;51.808;7.478;2023-02-13T00:01:29;13.05;;;8.15;;
12852;SDS011;6495;51.808;7.478;2023-02-13T00:04:08;14.57;;;7.95;;
12852;SDS011;6495;51.808;7.478;2023-02-13T00:06:59;12.65;;;7.85;;
12852;SDS011;6495;51.808;7.478;2023-02-13T00:09:47;14.23;;;8.73;;
12852;SDS011;6495;51.808;7.478;2023-02-13T00:12:36;17.17;;;8.88;;
12852;SDS011;6495;51.808;7.478;2023-02-13T00:15:53;14.38;;;8.95;;
12852;SDS011;6495;51.808;7.478;2023-02-13T00:18:24;13.88;;;8.55;;
12852;SDS011;6495;51.808;7.478;2023-02-13T00:21:22;15.88;;;8.65;;
12852;SDS011;6495;51.808;7.478;2023-02-13T00:24:28;14.70;;;8.23;;
12852;SDS011;6495;51.808;7.478;2023-02-13T00:27:24;16.13;;;9.77;;
12852;SDS011;6495;51.808;7.478;2023-02-13T00:30:10;16.93;;;9.60;;
12852;SDS011;6495;51.808;7.478;2023-02-13T00:32:54;15.50;;;8.32;;
12852;SDS011;6495;51.808;7.478;2023-02-13T00:36:01;17.53;;;9.20;;
12852;SDS011;6495;51.808;7.478;2023-02-13T00:38:47;13.27;;;8.23;;
12852;SDS011;6495;51.808;7.478;2023-02-13T00:41:23;15.90;;;8.43;;
12852;SDS011;6495;51.808;7.478;2023-02-13T00:44:02;12.80;;;8.75;;
12852;SDS011;6495;51.808;7.478;2023-02-13T00:46:51;16.83;;;8.65;;
12852;SDS011;6495;51.808;7.478;2023-02-13T00:49:44;13.53;;;8.30;;
12852;SDS011;6495;51.808;7.478;2023-02-13T00:52:36;15.77;;;8.83;;
12852;SDS011;6495;51.808;7.478;2023-02-13T00:55:30;14.17;;;9.07;;
12852;SDS011;6495;51.808;7.478;2023-02-13T00:58:21;14.30;;;8.20;;
12852;SDS011;6495;51.808;7.478;2023-02-13T01:01:50;17.33;;;8.13;;
12852;SDS011;6495;51.808;7.478;2023-02-13T01:04:18;14.80;;;7.67;;
12852;SDS011;6495;51.808;7.478;2023-02-13T01:07:07;15.90;;;8.13;;
12852;SDS011;6495;51.808;7.478;2023-02-13T01:10:03;14.30;;;7.50;;
12852;SDS011;6495;51.808;7.478;2023-02-13T01:12:54;12.90;;;7.50;;
12852;SDS011;6495;51.808;7.478;2023-02-13T01:16:06;15.57;;;7.93;;
12852;SDS011;6495;51.808;7.478;2023-02-13T01:18:44;15.20;;;8.53;;
12852;SDS011;6495;51.808;7.478;2023-02-13T01:21:30;11.40;;;7.70;;
12852;SDS011;6495;51.808;7.478;2023-02-13T01:24:12;16.37;;;8.40;;
12852;SDS011;6495;51.808;7.478;2023-02-13T01:27:21;15.90;;;8.05;;
12852;SDS011;6495;51.808;7.478;2023-02-13T01:30:43;13.07;;;6.93;;
12852;SDS011;6495;51.808;7.478;2023-02-13T01:33:45;13.83;;;7.50;;
12852;SDS011;6495;51.808;7.478;2023-02-13T01:36:41;12.37;;;7.90;;
12852;SDS011;6495;51.808;7.478;2023-02-13T01:39:47;12.03;;;7.13;;
12852;SDS011;6495;51.808;7.478;2023-02-13T01:43:07;13.77;;;7.77;;
12852;SDS011;6495;51.808;7.478;2023-02-13T01:45:35;14.00;;;7.47;;
12852;SDS011;6495;51.808;7.478;2023-02-13T01:48:22;11.77;;;7.17;;
12852;SDS011;6495;51.808;7.478;2023-02-13T01:51:06;11.97;;;7.13;;
12852;SDS011;6495;51.808;7.478;2023-02-13T01:58:19;9.60;;;6.97;;
12852;SDS011;6495;51.808;7.478;2023-02-13T02:01:05;12.00;;;6.60;;
12852;SDS011;6495;51.808;7.478;2023-02-13T02:03:47;14.00;;;6.87;;
12852;SDS011;6495;51.808;7.478;2023-02-13T02:06:56;11.73;;;7.10;;
12852;SDS011;6495;51.808;7.478;2023-02-13T02:10:24;13.23;;;6.83;;
12852;SDS011;6495;51.808;7.478;2023-02-13T02:13:36;11.50;;;7.13;;
12852;SDS011;6495;51.808;7.478;2023-02-13T02:16:36;11.47;;;6.87;;
12852;SDS011;6495;51.808;7.478;2023-02-13T02:19:32;11.47;;;6.73;;
12852;SDS011;6495;51.808;7.478;2023-02-13T02:30:15;10.50;;;5.80;;
12852;SDS011;6495;51.808;7.478;2023-02-13T02:33:55;10.27;;;5.70;;
12852;SDS011;6495;51.808;7.478;2023-02-13T02:36:57;10.10;;;5.90;;
12852;SDS011;6495;51.808;7.478;2023-02-13T02:39:57;12.60;;;6.43;;
12852;SDS011;6495;51.808;7.478;2023-02-13T02:43:17;8.60;;;5.37;;
12852;SDS011;6495;51.808;7.478;2023-02-13T02:46:22;9.80;;;5.60;;
12852;SDS011;6495;51.808;7.478;2023-02-13T02:49:09;8.73;;;5.50;;
12852;SDS011;6495;51.808;7.478;2023-02-13T02:52:10;10.60;;;5.83;;
12852;SDS011;6495;51.808;7.478;2023-02-13T02:54:55;9.73;;;6.32;;
12852;SDS011;6495;51.808;7.478;2023-02-13T02:58:17;9.20;;;5.40;;
12852;SDS011;6495;51.808;7.478;2023-02-13T03:01:10;8.77;;;5.80;;
12852;SDS011;6495;51.808;7.478;2023-02-13T03:04:16;10.10;;;6.17;;
12852;SDS011;6495;51.808;7.478;2023-02-13T03:07:15;8.63;;;4.87;;
12852;SDS011;6495;51.808;7.478;2023-02-13T03:10:05;11.67;;;5.40;;
12852;SDS011;6495;51.808;7.478;2023-02-13T03:13:38;10.00;;;6.00;;
12852;SDS011;6495;51.808;7.478;2023-02-13T03:16:31;10.17;;;5.37;;
12852;SDS011;6495;51.808;7.478;2023-02-13T03:19:30;9.40;;;5.57;;
12852;SDS011;6495;51.808;7.478;2023-02-13T03:22:35;10.83;;;5.90;;
12852;SDS011;6495;51.808;7.478;2023-02-13T03:29:22;13.20;;;5.97;;
12852;SDS011;6495;51.808;7.478;2023-02-13T03:32:35;10.33;;;5.67;;
12852;SDS011;6495;51.808;7.478;2023-02-13T03:35:31;11.33;;;6.13;;
12852;SDS011;6495;51.808;7.478;2023-02-13T03:38:47;9.70;;;5.60;;
12852;SDS011;6495;51.808;7.478;2023-02-13T03:41:52;13.50;;;6.18;;
12852;SDS011;6495;51.808;7.478;2023-02-13T03:44:42;9.37;;;5.30;;
12852;SDS011;6495;51.808;7.478;2023-02-13T03:47:39;11.60;;;6.03;;
12852;SDS011;6495;51.808;7.478;2023-02-13T03:50:27;8.60;;;5.18;;
12852;SDS011;6495;51.808;7.478;2023-02-13T03:53:17;11.53;;;6.60;;
12852;SDS011;6495;51.808;7.478;2023-02-13T03:56:23;10.93;;;5.60;;
12852;SDS011;6495;51.808;7.478;2023-02-13T03:59:32;10.27;;;5.07;;
12852;SDS011;6495;51.808;7.478;2023-02-13T04:02:09;10.13;;;5.77;;
12852;SDS011;6495;51.808;7.478;2023-02-13T04:04:57;8.93;;;5.77;;
12852;SDS011;6495;51.808;7.478;2023-02-13T04:07:47;10.40;;;5.40;;
12852;SDS011;6495;51.808;7.478;2023-02-13T04:10:21;11.13;;;6.05;;
12852;SDS011;6495;51.808;7.478;2023-02-13T04:13:05;10.07;;;6.00;;
12852;SDS011;6495;51.808;7.478;2023-02-13T04:16:12;11.63;;;5.53;;
12852;SDS011;6495;51.808;7.478;2023-02-13T04:19:37;10.60;;;6.07;;
12852;SDS011;6495;51.808;7.478;2023-02-13T04:22:29;11.97;;;5.90;;
12852;SDS011;6495;51.808;7.478;2023-02-13T04:25:23;10.07;;;5.80;;
12852;SDS011;6495;51.808;7.478;2023-02-13T04:28:49;14.70;;;5.90;;
12852;SDS011;6495;51.808;7.478;2023-02-13T04:31:54;10.00;;;5.50;;
12852;SDS011;6495;51.808;7.478;2023-02-13T04:34:45;9.10;;;5.50;;
12852;SDS011;6495;51.808;7.478;2023-02-13T04:37:37;12.57;;;6.10;;
12852;SDS011;6495;51.808;7.478;2023-02-13T04:40:16;10.27;;;5.83;;
12852;SDS011;6495;51.808;7.478;2023-02-13T04:42:57;12.83;;;6.53;;
12852;SDS011;6495;51.808;7.478;2023-02-13T04:46:12;10.17;;;6.13;;
12852;SDS011;6495;51.808;7.478;2023-02-13T04:53:17;12.32;;;6.65;;
12852;SDS011;6495;51.808;7.478;2023-02-13T04:56:07;9.13;;;6.20;;
12852;SDS011;6495;51.808;7.478;2023-02-13T04:59:15;12.98;;;5.60;;
12852;SDS011;6495;51.808;7.478;2023-02-13T05:01:53;9.07;;;5.40;;
12852;SDS011;6495;51.808;7.478;2023-02-13T05:04:36;8.32;;;5.55;;
12852;SDS011;6495;51.808;7.478;2023-02-13T05:07:26;10.45;;;6.13;;
12852;SDS011;6495;51.808;7.478;2023-02-13T05:17:04;11.23;;;5.70;;
12852;SDS011;6495;51.808;7.478;2023-02-13T05:19:45;9.80;;;5.43;;
12852;SDS011;6495;51.808;7.478;2023-02-13T05:22:23;8.80;;;5.90;;
12852;SDS011;6495;51.808;7.478;2023-02-13T05:25:08;10.57;;;5.80;;
12852;SDS011;6495;51.808;7.478;2023-02-13T05:27:36;9.63;;;5.73;;
12852;SDS011;6495;51.808;7.478;2023-02-13T05:30:05;10.73;;;6.23;;
12852;SDS011;6495;51.808;7.478;2023-02-13T05:32:35;11.10;;;6.10;;
12852;SDS011;6495;51.808;7.478;2023-02-13T05:35:03;10.17;;;5.70;;
12852;SDS011;6495;51.808;7.478;2023-02-13T05:37:32;10.33;;;6.13;;
12852;SDS011;6495;51.808;7.478;2023-02-13T05:40:00;10.10;;;6.03;;
12852;SDS011;6495;51.808;7.478;2023-02-13T05:42:29;8.90;;;5.70;;
12852;SDS011;6495;51.808;7.478;2023-02-13T05:44:58;13.47;;;6.10;;
12852;SDS011;6495;51.808;7.478;2023-02-13T05:47:26;8.37;;;4.87;;
12852;SDS011;6495;51.808;7.478;2023-02-13T05:49:56;10.35;;;6.35;;
12852;SDS011;6495;51.808;7.478;2023-02-13T05:52:25;8.77;;;5.60;;
12852;SDS011;6495;51.808;7.478;2023-02-13T05:54:53;10.60;;;5.77;;
12852;SDS011;6495;51.808;7.478;2023-02-13T05:57:22;10.07;;;5.77;;
12852;SDS011;6495;51.808;7.478;2023-02-13T05:59:50;9.50;;;5.73;;
12852;SDS011;6495;51.808;7.478;2023-02-13T06:02:18;12.05;;;6.38;;
12852;SDS011;6495;51.808;7.478;2023-02-13T06:04:47;10.43;;;5.32;;
12852;SDS011;6495;51.808;7.478;2023-02-13T06:07:16;9.97;;;5.80;;
12852;SDS011;6495;51.808;7.478;2023-02-13T06:09:45;12.60;;;6.53;;
12852;SDS011;6495;51.808;7.478;2023-02-13T06:12:13;13.00;;;7.20;;
12852;SDS011;6495;51.808;7.478;2023-02-13T06:14:41;11.97;;;6.03;;
12852;SDS011;6495;51.808;7.478;2023-02-13T06:17:10;10.40;;;5.87;;
12852;SDS011;6495;51.808;7.478;2023-02-13T06:19:38;7.90;;;4.70;;
12852;SDS011;6495;51.808;7.478;2023-02-13T06:22:06;9.30;;;5.67;;
12852;SDS011;6495;51.808;7.478;2023-02-13T06:24:36;9.53;;;5.47;;
12852;SDS011;6495;51.808;7.478;2023-02-13T06:27:04;10.77;;;5.57;;
12852;SDS011;6495;51.808;7.478;2023-02-13T06:29:33;10.00;;;5.97;;
12852;SDS011;6495;51.808;7.478;2023-02-13T06:32:01;8.73;;;4.93;;
12852;SDS011;6495;51.808;7.478;2023-02-13T06:34:30;6.07;;;4.07;;
12852;SDS011;6495;51.808;7.478;2023-02-13T06:36:58;6.80;;;4.57;;
12852;SDS011;6495;51.808;7.478;2023-02-13T06:39:26;8.27;;;4.83;;
12852;SDS011;6495;51.808;7.478;2023-02-13T06:41:56;7.27;;;4.77;;
12852;SDS011;6495;51.808;7.478;2023-02-13T06:44:24;7.33;;;4.40;;
12852;SDS011;6495;51.808;7.478;2023-02-13T06:46:52;8.77;;;4.40;;
12852;SDS011;6495;51.808;7.478;2023-02-13T06:49:21;7.10;;;4.75;;
12852;SDS011;6495;51.808;7.478;2023-02-13T06:51:49;5.70;;;3.90;;
12852;SDS011;6495;51.808;7.478;2023-02-13T06:54:17;7.43;;;4.10;;
12852;SDS011;6495;51.808;7.478;2023-02-13T06:57:11;6.10;;;4.07;;
12852;SDS011;6495;51.808;7.478;2023-02-13T06:59:39;7.93;;;4.40;;
12852;SDS011;6495;51.808;7.478;2023-02-13T07:02:08;7.47;;;4.57;;
12852;SDS011;6495;51.808;7.478;2023-02-13T07:04:37;5.97;;;4.13;;
12852;SDS011;6495;51.808;7.478;2023-02-13T07:07:05;6.35;;;4.28;;
12852;SDS011;6495;51.808;7.478;2023-02-13T07:09:34;7.53;;;4.43;;
12852;SDS011;6495;51.808;7.478;2023-02-13T07:12:02;7.15;;;4.82;;
12852;SDS011;6495;51.808;7.478;2023-02-13T07:14:33;5.63;;;4.40;;
12852;SDS011;6495;51.808;7.478;2023-02-13T07:17:03;6.93;;;4.60;;
12852;SDS011;6495;51.808;7.478;2023-02-13T07:19:32;8.17;;;4.27;;
12852;SDS011;6495;51.808;7.478;2023-02-13T07:22:00;6.53;;;4.38;;
12852;SDS011;6495;51.808;7.478;2023-02-13T07:24:28;7.37;;;4.07;;
12852;SDS011;6495;51.808;7.478;2023-02-13T07:26:59;8.77;;;4.83;;
12852;SDS011;6495;51.808;7.478;2023-02-13T07:29:27;7.80;;;4.57;;
12852;SDS011;6495;51.808;7.478;2023-02-13T07:31:57;7.50;;;4.27;;
12852;SDS011;6495;51.808;7.478;2023-02-13T07:34:25;6.03;;;4.30;;
12852;SDS011;6495;51.808;7.478;2023-02-13T07:36:54;8.30;;;4.80;;
12852;SDS011;6495;51.808;7.478;2023-02-13T07:39:22;6.20;;;4.35;;
12852;SDS011;6495;51.808;7.478;2023-02-13T07:41:50;6.90;;;4.22;;
12852;SDS011;6495;51.808;7.478;2023-02-13T07:44:24;7.97;;;4.45;;
12852;SDS011;6495;51.808;7.478;2023-02-13T07:46:52;7.97;;;4.80;;
12852;SDS011;6495;51.808;7.478;2023-02-13T07:49:22;7.10;;;4.60;;
12852;SDS011;6495;51.808;7.478;2023-02-13T07:51:51;8.97;;;5.10;;
12852;SDS011;6495;51.808;7.478;2023-02-13T07:54:22;8.65;;;4.85;;
12852;SDS011;6495;51.808;7.478;2023-02-13T07:56:50;6.87;;;4.53;;
12852;SDS011;6495;51.808;7.478;2023-02-13T07:59:18;10.70;;;5.53;;
12852;SDS011;6495;51.808;7.478;2023-02-13T08:01:47;10.48;;;5.25;;
12852;SDS011;6495;51.808;7.478;2023-02-13T08:04:15;10.23;;;5.93;;
12852;SDS011;6495;51.808;7.478;2023-02-13T08:06:45;8.63;;;5.47;;
12852;SDS011;6495;51.808;7.478;2023-02-13T08:09:16;8.77;;;5.28;;
12852;SDS011;6495;51.808;7.478;2023-02-13T08:12:06;11.57;;;6.40;;
12852;SDS011;6495;51.808;7.478;2023-02-13T08:14:36;11.90;;;6.37;;
12852;SDS011;6495;51.808;7.478;2023-02-13T08:17:05;13.87;;;7.27;;
12852;SDS011;6495;51.808;7.478;2023-02-13T08:19:33;12.37;;;6.83;;
12852;SDS011;6495;51.808;7.478;2023-02-13T08:22:03;12.10;;;6.77;;
12852;SDS011;6495;51.808;7.478;2023-02-13T08:24:32;11.02;;;6.60;;
12852;SDS011;6495;51.808;7.478;2023-02-13T08:27:00;12.00;;;6.32;;
12852;SDS011;6495;51.808;7.478;2023-02-13T08:29:29;12.50;;;6.43;;
12852;SDS011;6495;51.808;7.478;2023-02-13T08:31:57;14.23;;;7.32;;
12852;SDS011;6495;51.808;7.478;2023-02-13T08:34:25;13.13;;;7.00;;
12852;SDS011;6495;51.808;7.478;2023-02-13T08:36:54;16.37;;;8.33;;
12852;SDS011;6495;51.808;7.478;2023-02-13T08:39:24;12.40;;;7.88;;
12852;SDS011;6495;51.808;7.478;2023-02-13T08:41:52;11.82;;;6.60;;
12852;SDS011;6495;51.808;7.478;2023-02-13T08:44:20;15.13;;;7.68;;
12852;SDS011;6495;51.808;7.478;2023-02-13T08:46:49;12.70;;;7.63;;
12852;SDS011;6495;51.808;7.478;2023-02-13T08:49:18;12.13;;;7.03;;
12852;SDS011;6495;51.808;7.478;2023-02-13T08:51:48;12.25;;;7.07;;
12852;SDS011;6495;51.808;7.478;2023-02-13T08:54:17;8.93;;;5.38;;
12852;SDS011;6495;51.808;7.478;2023-02-13T08:56:47;12.33;;;6.33;;
12852;SDS011;6495;51.808;7.478;2023-02-13T08:59:15;10.07;;;5.60;;
12852;SDS011;6495;51.808;7.478;2023-02-13T09:01:44;12.27;;;6.03;;
12852;SDS011;6495;51.808;7.478;2023-02-13T09:04:12;10.47;;;5.97;;
12852;SDS011;6495;51.808;7.478;2023-02-13T09:06:43;11.00;;;5.63;;
12852;SDS011;6495;51.808;7.478;2023-02-13T09:09:11;10.73;;;5.97;;
12852;SDS011;6495;51.808;7.478;2023-02-13T09:11:41;13.88;;;6.82;;
12852;SDS011;6495;51.808;7.478;2023-02-13T09:14:11;10.20;;;6.28;;
12852;SDS011;6495;51.808;7.478;2023-02-13T09:16:39;13.52;;;6.75;;
12852;SDS011;6495;51.808;7.478;2023-02-13T09:19:08;12.35;;;6.03;;
12852;SDS011;6495;51.808;7.478;2023-02-13T09:21:36;11.18;;;6.68;;
12852;SDS011;6495;51.808;7.478;2023-02-13T09:24:05;13.85;;;6.85;;
12852;SDS011;6495;51.808;7.478;2023-02-13T09:26:35;10.82;;;6.05;;
12852;SDS011;6495;51.808;7.478;2023-02-13T09:29:03;9.65;;;5.57;;
12852;SDS011;6495;51.808;7.478;2023-02-13T09:31:33;9.07;;;5.43;;
12852;SDS011;6495;51.808;7.478;2023-02-13T09:34:03;8.93;;;5.78;;
12852;SDS011;6495;51.808;7.478;2023-02-13T09:36:32;9.93;;;5.40;;
12852;SDS011;6495;51.808;7.478;2023-02-13T09:39:01;8.25;;;5.15;;
12852;SDS011;6495;51.808;7.478;2023-02-13T09:41:31;10.23;;;5.38;;
12852;SDS011;6495;51.808;7.478;2023-02-13T09:44:04;10.17;;;5.23;;
12852;SDS011;6495;51.808;7.478;2023-02-13T09:47:00;7.80;;;5.35;;
12852;SDS011;6495;51.808;7.478;2023-02-13T09:49:37;10.60;;;5.32;;
12852;SDS011;6495;51.808;7.478;2023-02-13T09:52:12;8.18;;;4.80;;
12852;SDS011;6495;51.808;7.478;2023-02-13T09:54:41;7.40;;;4.85;;
12852;SDS011;6495;51.808;7.478;2023-02-13T09:57:13;8.38;;;4.90;;
12852;SDS011;6495;51.808;7.478;2023-02-13T09:59:55;8.73;;;4.90;;
12852;SDS011;6495;51.808;7.478;2023-02-13T10:02:44;8.77;;;5.35;;
12852;SDS011;6495;51.808;7.478;2023-02-13T10:05:41;7.82;;;5.22;;
12852;SDS011;6495;51.808;7.478;2023-02-13T10:08:26;7.68;;;4.63;;
12852;SDS011;6495;51.808;7.478;2023-02-13T10:11:15;9.15;;;4.88;;
12852;SDS011;6495;51.808;7.478;2023-02-13T10:14:08;8.50;;;5.38;;
12852;SDS011;6495;51.808;7.478;2023-02-13T10:16:44;7.82;;;5.00;;
12852;SDS011;6495;51.808;7.478;2023-02-13T10:19:22;8.27;;;5.22;;
12852;SDS011;6495;51.808;7.478;2023-02-13T10:22:04;8.98;;;5.43;;
12852;SDS011;6495;51.808;7.478;2023-02-13T10:24:39;8.48;;;4.75;;
12852;SDS011;6495;51.808;7.478;2023-02-13T10:27:21;9.43;;;5.47;;
12852;SDS011;6495;51.808;7.478;2023-02-13T10:29:53;7.93;;;5.53;;
12852;SDS011;6495;51.808;7.478;2023-02-13T10:32:44;8.05;;;5.07;;
12852;SDS011;6495;51.808;7.478;2023-02-13T10:35:38;8.93;;;5.75;;
12852;SDS011;6495;51.808;7.478;2023-02-13T10:38:11;8.57;;;5.65;;
12852;SDS011;6495;51.808;7.478;2023-02-13T10:40:46;8.00;;;5.22;;
12852;SDS011;6495;51.808;7.478;2023-02-13T10:43:36;8.27;;;5.10;;
12852;SDS011;6495;51.808;7.478;2023-02-13T10:46:20;9.73;;;6.50;;
12852;SDS011;6495;51.808;7.478;2023-02-13T10:49:07;7.68;;;5.40;;
12852;SDS011;6495;51.808;7.478;2023-02-13T10:52:04;9.98;;;5.53;;
12852;SDS011;6495;51.808;7.478;2023-02-13T10:54:54;7.95;;;5.05;;
12852;SDS011;6495;51.808;7.478;2023-02-13T10:57:51;8.32;;;5.47;;
12852;SDS011;6495;51.808;7.478;2023-02-13T11:00:34;7.38;;;5.35;;
12852;SDS011;6495;51.808;7.478;2023-02-13T11:03:16;9.52;;;6.40;;
12852;SDS011;6495;51.808;7.478;2023-02-13T11:05:47;8.68;;;5.70;;
12852;SDS011;6495;51.808;7.478;2023-02-13T11:08:20;8.63;;;5.45;;
12852;SDS011;6495;51.808;7.478;2023-02-13T11:10:51;9.35;;;5.80;;
12852;SDS011;6495;51.808;7.478;2023-02-13T11:13:20;8.13;;;5.78;;
12852;SDS011;6495;51.808;7.478;2023-02-13T11:15:56;8.35;;;5.35;;
12852;SDS011;6495;51.808;7.478;2023-02-13T11:28:06;9.63;;;6.05;;
12852;SDS011;6495;51.808;7.478;2023-02-13T11:30:43;9.57;;;5.70;;
12852;SDS011;6495;51.808;7.478;2023-02-13T11:33:17;6.90;;;5.07;;
12852;SDS011;6495;51.808;7.478;2023-02-13T11:36:02;8.73;;;5.18;;
12852;SDS011;6495;51.808;7.478;2023-02-13T11:38:34;7.55;;;5.57;;
12852;SDS011;6495;51.808;7.478;2023-02-13T11:41:04;7.40;;;5.30;;
12852;SDS011;6495;51.808;7.478;2023-02-13T11:43:42;8.10;;;5.72;;
12852;SDS011;6495;51.808;7.478;2023-02-13T11:46:16;8.82;;;4.88;;
12852;SDS011;6495;51.808;7.478;2023-02-13T11:48:57;7.15;;;4.55;;
12852;SDS011;6495;51.808;7.478;2023-02-13T11:51:35;7.45;;;4.90;;
12852;SDS011;6495;51.808;7.478;2023-02-13T11:54:18;7.28;;;4.78;;
12852;SDS011;6495;51.808;7.478;2023-02-13T11:56:59;7.30;;;5.18;;
12852;SDS011;6495;51.808;7.478;2023-02-13T12:00:25;7.35;;;4.90;;
12852;SDS011;6495;51.808;7.478;2023-02-13T12:03:27;7.43;;;4.97;;
12852;SDS011;6495;51.808;7.478;2023-02-13T12:09:13;6.75;;;4.47;;
12852;SDS011;6495;51.808;7.478;2023-02-13T12:11:54;6.47;;;4.70;;
12852;SDS011;6495;51.808;7.478;2023-02-13T12:14:57;7.80;;;4.95;;
12852;SDS011;6495;51.808;7.478;2023-02-13T12:17:41;4.45;;;3.90;;
12852;SDS011;6495;51.808;7.478;2023-02-13T12:21:01;6.30;;;4.70;;
12852;SDS011;6495;51.808;7.478;2023-02-13T12:24:07;5.68;;;4.18;;
12852;SDS011;6495;51.808;7.478;2023-02-13T12:26:54;5.70;;;4.13;;
12852;SDS011;6495;51.808;7.478;2023-02-13T12:29:46;6.28;;;4.30;;
12852;SDS011;6495;51.808;7.478;2023-02-13T12:32:49;5.53;;;4.30;;
12852;SDS011;6495;51.808;7.478;2023-02-13T12:35:44;7.95;;;4.65;;
12852;SDS011;6495;51.808;7.478;2023-02-13T12:38:26;6.10;;;4.03;;
12852;SDS011;6495;51.808;7.478;2023-02-13T12:41:15;4.97;;;3.78;;
12852;SDS011;6495;51.808;7.478;2023-02-13T12:47:06;5.00;;;3.85;;
12852;SDS011;6495;51.808;7.478;2023-02-13T12:53:11;6.68;;;4.40;;
12852;SDS011;6495;51.808;7.478;2023-02-13T12:56:13;7.72;;;4.28;;
12852;SDS011;6495;51.808;7.478;2023-02-13T12:59:34;6.13;;;4.20;;
12852;SDS011;6495;51.808;7.478;2023-02-13T13:02:38;5.75;;;4.07;;
12852;SDS011;6495;51.808;7.478;2023-02-13T13:16:28;5.93;;;4.00;;
12852;SDS011;6495;51.808;7.478;2023-02-13T13:20:21;5.40;;;4.07;;
12852;SDS011;6495;51.808;7.478;2023-02-13T13:23:59;7.50;;;4.75;;
12852;SDS011;6495;51.808;7.478;2023-02-13T13:30:28;7.03;;;4.10;;
12852;SDS011;6495;51.808;7.478;2023-02-13T13:33:17;6.00;;;3.90;;
12852;SDS011;6495;51.808;7.478;2023-02-13T13:36:02;4.93;;;3.90;;
12852;SDS011;6495;51.808;7.478;2023-02-13T13:39:05;7.32;;;4.57;;
12852;SDS011;6495;51.808;7.478;2023-02-13T13:42:38;6.50;;;4.40;;
12852;SDS011;6495;51.808;7.478;2023-02-13T13:45:25;7.07;;;4.18;;
12852;SDS011;6495;51.808;7.478;2023-02-13T13:48:55;5.68;;;4.10;;
12852;SDS011;6495;51.808;7.478;2023-02-13T13:59:17;6.55;;;4.13;;
12852;SDS011;6495;51.808;7.478;2023-02-13T14:02:40;5.90;;;4.43;;
12852;SDS011;6495;51.808;7.478;2023-02-13T14:06:00;9.02;;;4.82;;
12852;SDS011;6495;51.808;7.478;2023-02-13T14:08:53;6.68;;;4.32;;
12852;SDS011;6495;51.808;7.478;2023-02-13T14:11:44;5.50;;;4.15;;
12852;SDS011;6495;51.808;7.478;2023-02-13T14:32:50;8.82;;;4.72;;
12852;SDS011;6495;51.808;7.478;2023-02-13T14:35:19;8.25;;;4.75;;
12852;SDS011;6495;51.808;7.478;2023-02-13T14:37:56;6.63;;;4.90;;
12852;SDS011;6495;51.808;7.478;2023-02-13T14:46:13;6.00;;;4.13;;
12852;SDS011;6495;51.808;7.478;2023-02-13T14:54:42;6.57;;;4.53;;
12852;SDS011;6495;51.808;7.478;2023-02-13T14:57:51;6.80;;;4.57;;
12852;SDS011;6495;51.808;7.478;2023-02-13T15:01:17;5.63;;;4.38;;
12852;SDS011;6495;51.808;7.478;2023-02-13T15:17:18;7.68;;;4.47;;
12852;SDS011;6495;51.808;7.478;2023-02-13T15:20:21;6.68;;;4.50;;
12852;SDS011;6495;51.808;7.478;2023-02-13T15:43:29;6.82;;;4.70;;
12852;SDS011;6495;51.808;7.478;2023-02-13T15:46:19;6.05;;;4.05;;
12852;SDS011;6495;51.808;7.478;2023-02-13T15:48:54;6.80;;;3.78;;
12852;SDS011;6495;51.808;7.478;2023-02-13T15:51:27;5.88;;;4.18;;
12852;SDS011;6495;51.808;7.478;2023-02-13T15:53:58;6.25;;;4.05;;
12852;SDS011;6495;51.808;7.478;2023-02-13T15:56:29;6.40;;;4.13;;
12852;SDS011;6495;51.808;7.478;2023-02-13T15:59:01;6.85;;;4.18;;
12852;SDS011;6495;51.808;7.478;2023-02-13T16:01:30;6.80;;;4.50;;
12852;SDS011;6495;51.808;7.478;2023-02-13T16:04:01;6.20;;;4.45;;
12852;SDS011;6495;51.808;7.478;2023-02-13T16:06:35;8.50;;;4.50;;
12852;SDS011;6495;51.808;7.478;2023-02-13T16:09:03;5.18;;;3.80;;
12852;SDS011;6495;51.808;7.478;2023-02-13T16:11:32;7.10;;;4.15;;
12852;SDS011;6495;51.808;7.478;2023-02-13T16:14:06;6.25;;;4.00;;
12852;SDS011;6495;51.808;7.478;2023-02-13T16:16:47;8.23;;;4.55;;
12852;SDS011;6495;51.808;7.478;2023-02-13T16:19:24;6.35;;;4.20;;
12852;SDS011;6495;51.808;7.478;2023-02-13T16:21:58;5.35;;;4.03;;
12852;SDS011;6495;51.808;7.478;2023-02-13T16:24:33;7.72;;;4.10;;
12852;SDS011;6495;51.808;7.478;2023-02-13T16:27:03;5.63;;;4.25;;
12852;SDS011;6495;51.808;7.478;2023-02-13T16:29:46;5.93;;;3.80;;
12852;SDS011;6495;51.808;7.478;2023-02-13T16:32:50;7.00;;;4.22;;
12852;SDS011;6495;51.808;7.478;2023-02-13T16:35:28;5.40;;;3.90;;
12852;SDS011;6495;51.808;7.478;2023-02-13T16:38:19;5.25;;;3.80;;
12852;SDS011;6495;51.808;7.478;2023-02-13T16:40:54;5.07;;;3.78;;
12852;SDS011;6495;51.808;7.478;2023-02-13T16:43:38;6.03;;;3.70;;
12852;SDS011;6495;51.808;7.478;2023-02-13T16:46:15;6.25;;;4.40;;
12852;SDS011;6495;51.808;7.478;2023-02-13T16:49:05;5.47;;;3.90;;
12852;SDS011;6495;51.808;7.478;2023-02-13T16:51:54;6.82;;;3.97;;
12852;SDS011;6495;51.808;7.478;2023-02-13T16:54:38;6.68;;;4.65;;
12852;SDS011;6495;51.808;7.478;2023-02-13T16:57:18;6.13;;;3.80;;
12852;SDS011;6495;51.808;7.478;2023-02-13T16:59:52;8.00;;;4.57;;
12852;SDS011;6495;51.808;7.478;2023-02-13T17:02:26;5.50;;;4.28;;
12852;SDS011;6495;51.808;7.478;2023-02-13T17:04:56;5.70;;;3.72;;
12852;SDS011;6495;51.808;7.478;2023-02-13T17:07:43;5.95;;;3.88;;
12852;SDS011;6495;51.808;7.478;2023-02-13T17:10:17;8.13;;;4.18;;
12852;SDS011;6495;51.808;7.478;2023-02-13T17:12:49;6.03;;;4.13;;
12852;SDS011;6495;51.808;7.478;2023-02-13T17:15:19;6.50;;;4.35;;
12852;SDS011;6495;51.808;7.478;2023-02-13T17:17:50;7.15;;;4.63;;
12852;SDS011;6495;51.808;7.478;2023-02-13T17:20:20;6.45;;;3.55;;
12852;SDS011;6495;51.808;7.478;2023-02-13T17:22:51;7.57;;;4.00;;
12852;SDS011;6495;51.808;7.478;2023-02-13T17:25:21;8.57;;;4.00;;
12852;SDS011;6495;51.808;7.478;2023-02-13T17:27:52;6.97;;;4.28;;
12852;SDS011;6495;51.808;7.478;2023-02-13T17:30:23;9.27;;;4.05;;
12852;SDS011;6495;51.808;7.478;2023-02-13T17:32:57;8.25;;;4.20;;
12852;SDS011;6495;51.808;7.478;2023-02-13T17:35:31;6.22;;;4.20;;
12852;SDS011;6495;51.808;7.478;2023-02-13T17:38:00;8.23;;;4.07;;
12852;SDS011;6495;51.808;7.478;2023-02-13T17:40:29;6.88;;;3.83;;
12852;SDS011;6495;51.808;7.478;2023-02-13T17:42:57;6.32;;;4.25;;
12852;SDS011;6495;51.808;7.478;2023-02-13T17:45:27;5.38;;;3.78;;
12852;SDS011;6495;51.808;7.478;2023-02-13T17:47:59;5.90;;;3.88;;
12852;SDS011;6495;51.808;7.478;2023-02-13T17:50:28;4.88;;;3.95;;
12852;SDS011;6495;51.808;7.478;2023-02-13T17:53:00;5.72;;;3.60;;
12852;SDS011;6495;51.808;7.478;2023-02-13T17:55:31;6.75;;;4.30;;
12852;SDS011;6495;51.808;7.478;2023-02-13T17:58:01;7.22;;;4.43;;
12852;SDS011;6495;51.808;7.478;2023-02-13T18:00:30;4.95;;;3.67;;
12852;SDS011;6495;51.808;7.478;2023-02-13T18:03:05;5.85;;;3.78;;
12852;SDS011;6495;51.808;7.478;2023-02-13T18:05:33;7.55;;;3.75;;
12852;SDS011;6495;51.808;7.478;2023-02-13T18:08:01;6.88;;;4.00;;
12852;SDS011;6495;51.808;7.478;2023-02-13T18:10:30;6.18;;;4.20;;
12852;SDS011;6495;51.808;7.478;2023-02-13T18:13:01;5.18;;;4.15;;
12852;SDS011;6495;51.808;7.478;2023-02-13T18:15:31;5.88;;;4.30;;
12852;SDS011;6495;51.808;7.478;2023-02-13T18:18:01;6.95;;;4.55;;
12852;SDS011;6495;51.808;7.478;2023-02-13T18:20:31;7.45;;;4.45;;
12852;SDS011;6495;51.808;7.478;2023-02-13T18:23:00;9.05;;;4.57;;
12852;SDS011;6495;51.808;7.478;2023-02-13T18:25:28;8.55;;;4.38;;
12852;SDS011;6495;51.808;7.478;2023-02-13T18:27:57;8.60;;;4.90;;
12852;SDS011;6495;51.808;7.478;2023-02-13T18:30:25;7.95;;;5.10;;
12852;SDS011;6495;51.808;7.478;2023-02-13T18:32:54;7.25;;;5.13;;
12852;SDS011;6495;51.808;7.478;2023-02-13T18:35:24;5.72;;;4.25;;
12852;SDS011;6495;51.808;7.478;2023-02-13T18:37:55;7.00;;;5.05;;
12852;SDS011;6495;51.808;7.478;2023-02-13T18:40:23;9.13;;;5.38;;